sensor_id;sensor_type;location;lat;lon;timestamp;P1;durP1;ratioP1;P2;durP2;ratioP2
22565;SDS011;11449;51.330;19.378;2023-03-21T00:04:51;44.10;;;25.20;;
22565;SDS011;11449;51.330;19.378;2023-03-21T00:09:59;38.20;;;21.20;;
22565;SDS011;11449;51.330;19.378;2023-03-21T00:15:08;33.20;;;19.70;;
22565;SDS011;11449;51.330;19.378;2023-03-21T00:20:16;34.90;;;21.30;;
22565;SDS011;11449;51.330;19.378;2023-03-21T00:25:19;36.30;;;21.90;;
22565;SDS011;11449;51.330;19.378;2023-03-21T00:30:22;42.60;;;22.40;;
22565;SDS011;11449;51.330;19.378;2023-03-21T00:35:25;37.60;;;22.10;;
22565;SDS011;11449;51.330;19.378;2023-03-21T00:40:36;35.40;;;19.00;;
22565;SDS011;11449;51.330;19.378;2023-03-21T00:45:39;33.30;;;19.00;;
22565;SDS011;11449;51.330;19.378;2023-03-21T00:50:45;32.20;;;18.20;;
22565;SDS011;11449;51.330;19.378;2023-03-21T00:55:55;31.90;;;18.60;;
22565;SDS011;11449;51.330;19.378;2023-03-21T01:01:04;39.80;;;21.90;;
22565;SDS011;11449;51.330;19.378;2023-03-21T01:06:13;49.40;;;24.70;;
22565;SDS011;11449;51.330;19.378;2023-03-21T01:11:22;53.00;;;27.80;;
22565;SDS011;11449;51.330;19.378;2023-03-21T01:16:30;55.30;;;28.60;;
22565;SDS011;11449;51.330;19.378;2023-03-21T01:21:41;58.60;;;29.10;;
22565;SDS011;11449;51.330;19.378;2023-03-21T01:26:44;60.10;;;29.20;;
22565;SDS011;11449;51.330;19.378;2023-03-21T01:31:54;58.10;;;30.20;;
22565;SDS011;11449;51.330;19.378;2023-03-21T01:37:02;53.10;;;32.20;;
22565;SDS011;11449;51.330;19.378;2023-03-21T01:42:12;51.10;;;26.90;;
22565;SDS011;11449;51.330;19.378;2023-03-21T01:47:21;49.40;;;26.70;;
22565;SDS011;11449;51.330;19.378;2023-03-21T01:52:59;44.10;;;24.50;;
22565;SDS011;11449;51.330;19.378;2023-03-21T01:58:09;49.30;;;28.10;;
22565;SDS011;11449;51.330;19.378;2023-03-21T02:03:39;48.20;;;24.80;;
22565;SDS011;11449;51.330;19.378;2023-03-21T02:09:15;55.90;;;30.60;;
22565;SDS011;11449;51.330;19.378;2023-03-21T02:24:53;51.80;;;26.00;;
22565;SDS011;11449;51.330;19.378;2023-03-21T02:30:38;52.50;;;29.00;;
22565;SDS011;11449;51.330;19.378;2023-03-21T02:46:31;38.90;;;20.40;;
22565;SDS011;11449;51.330;19.378;2023-03-21T02:51:39;43.70;;;25.00;;
22565;SDS011;11449;51.330;19.378;2023-03-21T02:56:48;47.50;;;27.90;;
22565;SDS011;11449;51.330;19.378;2023-03-21T03:01:53;42.00;;;25.00;;
22565;SDS011;11449;51.330;19.378;2023-03-21T03:17:19;56.60;;;31.10;;
22565;SDS011;11449;51.330;19.378;2023-03-21T03:22:37;50.00;;;28.80;;
22565;SDS011;11449;51.330;19.378;2023-03-21T03:27:45;41.20;;;23.70;;
22565;SDS011;11449;51.330;19.378;2023-03-21T03:32:58;43.90;;;26.30;;
22565;SDS011;11449;51.330;19.378;2023-03-21T03:43:25;45.80;;;26.20;;
22565;SDS011;11449;51.330;19.378;2023-03-21T03:48:37;48.50;;;25.70;;
22565;SDS011;11449;51.330;19.378;2023-03-21T03:53:57;44.30;;;23.00;;
22565;SDS011;11449;51.330;19.378;2023-03-21T03:59:07;43.90;;;24.60;;
22565;SDS011;11449;51.330;19.378;2023-03-21T04:04:32;44.80;;;28.50;;
22565;SDS011;11449;51.330;19.378;2023-03-21T04:09:38;48.20;;;29.90;;
22565;SDS011;11449;51.330;19.378;2023-03-21T04:14:47;43.80;;;24.10;;
22565;SDS011;11449;51.330;19.378;2023-03-21T04:19:55;43.90;;;24.20;;
22565;SDS011;11449;51.330;19.378;2023-03-21T04:24:58;49.10;;;26.60;;
22565;SDS011;11449;51.330;19.378;2023-03-21T04:30:04;48.00;;;27.80;;
22565;SDS011;11449;51.330;19.378;2023-03-21T04:40:49;38.90;;;21.60;;
22565;SDS011;11449;51.330;19.378;2023-03-21T04:45:57;38.30;;;22.20;;
22565;SDS011;11449;51.330;19.378;2023-03-21T04:51:00;35.20;;;20.20;;
22565;SDS011;11449;51.330;19.378;2023-03-21T04:56:08;33.00;;;18.20;;
22565;SDS011;11449;51.330;19.378;2023-03-21T05:01:18;38.50;;;19.90;;
22565;SDS011;11449;51.330;19.378;2023-03-21T05:06:29;38.40;;;22.10;;
22565;SDS011;11449;51.330;19.378;2023-03-21T05:11:37;41.20;;;22.10;;
22565;SDS011;11449;51.330;19.378;2023-03-21T05:16:48;46.50;;;24.20;;
22565;SDS011;11449;51.330;19.378;2023-03-21T05:22:07;42.80;;;22.20;;
22565;SDS011;11449;51.330;19.378;2023-03-21T05:27:16;53.80;;;29.70;;
22565;SDS011;11449;51.330;19.378;2023-03-21T05:32:43;53.40;;;28.00;;
22565;SDS011;11449;51.330;19.378;2023-03-21T05:37:52;47.30;;;25.20;;
22565;SDS011;11449;51.330;19.378;2023-03-21T05:43:01;50.90;;;28.50;;
22565;SDS011;11449;51.330;19.378;2023-03-21T05:48:12;68.20;;;35.40;;
22565;SDS011;11449;51.330;19.378;2023-03-21T05:53:39;69.80;;;34.60;;
22565;SDS011;11449;51.330;19.378;2023-03-21T05:58:49;71.50;;;33.50;;
22565;SDS011;11449;51.330;19.378;2023-03-21T06:03:58;72.30;;;36.10;;
22565;SDS011;11449;51.330;19.378;2023-03-21T06:09:03;71.40;;;35.70;;
22565;SDS011;11449;51.330;19.378;2023-03-21T06:14:12;73.30;;;35.70;;
22565;SDS011;11449;51.330;19.378;2023-03-21T06:19:22;67.60;;;32.50;;
22565;SDS011;11449;51.330;19.378;2023-03-21T06:24:41;58.50;;;29.80;;
22565;SDS011;11449;51.330;19.378;2023-03-21T06:29:44;63.90;;;32.20;;
22565;SDS011;11449;51.330;19.378;2023-03-21T06:34:53;65.10;;;33.40;;
22565;SDS011;11449;51.330;19.378;2023-03-21T06:40:01;62.20;;;32.50;;
22565;SDS011;11449;51.330;19.378;2023-03-21T06:45:11;67.10;;;33.90;;
22565;SDS011;11449;51.330;19.378;2023-03-21T06:50:14;64.90;;;31.70;;
22565;SDS011;11449;51.330;19.378;2023-03-21T06:55:47;66.50;;;32.30;;
22565;SDS011;11449;51.330;19.378;2023-03-21T07:00:57;66.80;;;32.90;;
22565;SDS011;11449;51.330;19.378;2023-03-21T07:06:07;57.90;;;30.70;;
22565;SDS011;11449;51.330;19.378;2023-03-21T07:11:29;56.00;;;29.10;;
22565;SDS011;11449;51.330;19.378;2023-03-21T07:16:38;62.20;;;30.50;;
22565;SDS011;11449;51.330;19.378;2023-03-21T07:21:44;64.60;;;30.60;;
22565;SDS011;11449;51.330;19.378;2023-03-21T07:26:52;60.60;;;31.70;;
22565;SDS011;11449;51.330;19.378;2023-03-21T07:32:01;69.00;;;33.90;;
22565;SDS011;11449;51.330;19.378;2023-03-21T07:37:08;67.40;;;34.50;;
22565;SDS011;11449;51.330;19.378;2023-03-21T07:42:17;66.10;;;31.90;;
22565;SDS011;11449;51.330;19.378;2023-03-21T07:47:32;56.30;;;30.00;;
22565;SDS011;11449;51.330;19.378;2023-03-21T07:52:35;60.80;;;31.30;;
22565;SDS011;11449;51.330;19.378;2023-03-21T07:57:43;57.10;;;29.60;;
22565;SDS011;11449;51.330;19.378;2023-03-21T08:02:51;60.40;;;32.90;;
22565;SDS011;11449;51.330;19.378;2023-03-21T08:08:03;59.10;;;31.80;;
22565;SDS011;11449;51.330;19.378;2023-03-21T08:13:13;51.70;;;30.00;;
22565;SDS011;11449;51.330;19.378;2023-03-21T08:18:16;58.80;;;32.40;;
22565;SDS011;11449;51.330;19.378;2023-03-21T08:23:24;60.40;;;34.40;;
22565;SDS011;11449;51.330;19.378;2023-03-21T08:28:32;54.10;;;30.50;;
22565;SDS011;11449;51.330;19.378;2023-03-21T08:33:35;56.90;;;32.70;;
22565;SDS011;11449;51.330;19.378;2023-03-21T08:38:38;59.40;;;34.60;;
22565;SDS011;11449;51.330;19.378;2023-03-21T08:43:47;57.50;;;31.80;;
22565;SDS011;11449;51.330;19.378;2023-03-21T08:48:55;53.50;;;31.80;;
22565;SDS011;11449;51.330;19.378;2023-03-21T08:54:03;49.70;;;29.40;;
22565;SDS011;11449;51.330;19.378;2023-03-21T08:59:11;55.30;;;31.00;;
22565;SDS011;11449;51.330;19.378;2023-03-21T09:04:14;56.40;;;32.50;;
22565;SDS011;11449;51.330;19.378;2023-03-21T09:09:25;48.90;;;29.00;;
22565;SDS011;11449;51.330;19.378;2023-03-21T09:14:27;54.10;;;30.40;;
22565;SDS011;11449;51.330;19.378;2023-03-21T09:19:35;46.30;;;28.40;;
22565;SDS011;11449;51.330;19.378;2023-03-21T09:24:43;55.60;;;31.80;;
22565;SDS011;11449;51.330;19.378;2023-03-21T09:29:54;53.90;;;30.40;;
22565;SDS011;11449;51.330;19.378;2023-03-21T09:34:59;57.50;;;32.70;;
22565;SDS011;11449;51.330;19.378;2023-03-21T09:40:29;50.10;;;28.70;;
22565;SDS011;11449;51.330;19.378;2023-03-21T09:45:55;46.40;;;27.60;;
22565;SDS011;11449;51.330;19.378;2023-03-21T09:51:05;52.60;;;29.00;;
22565;SDS011;11449;51.330;19.378;2023-03-21T09:56:12;45.90;;;26.40;;
22565;SDS011;11449;51.330;19.378;2023-03-21T10:01:21;43.00;;;25.40;;
22565;SDS011;11449;51.330;19.378;2023-03-21T10:06:34;35.20;;;23.90;;
22565;SDS011;11449;51.330;19.378;2023-03-21T10:11:50;39.30;;;21.90;;
22565;SDS011;11449;51.330;19.378;2023-03-21T10:22:43;28.20;;;16.60;;
22565;SDS011;11449;51.330;19.378;2023-03-21T10:27:52;22.70;;;15.80;;
22565;SDS011;11449;51.330;19.378;2023-03-21T10:32:56;32.40;;;17.60;;
22565;SDS011;11449;51.330;19.378;2023-03-21T10:38:05;31.30;;;17.80;;
22565;SDS011;11449;51.330;19.378;2023-03-21T10:43:15;29.90;;;16.30;;
22565;SDS011;11449;51.330;19.378;2023-03-21T10:48:23;23.60;;;16.10;;
22565;SDS011;11449;51.330;19.378;2023-03-21T10:53:34;19.10;;;12.00;;
22565;SDS011;11449;51.330;19.378;2023-03-21T10:58:45;32.70;;;17.30;;
22565;SDS011;11449;51.330;19.378;2023-03-21T11:03:54;19.30;;;12.90;;
22565;SDS011;11449;51.330;19.378;2023-03-21T11:09:14;16.10;;;11.40;;
22565;SDS011;11449;51.330;19.378;2023-03-21T11:14:24;16.80;;;11.10;;
22565;SDS011;11449;51.330;19.378;2023-03-21T11:19:34;16.50;;;9.60;;
22565;SDS011;11449;51.330;19.378;2023-03-21T11:24:45;9.70;;;7.00;;
22565;SDS011;11449;51.330;19.378;2023-03-21T11:29:55;13.10;;;9.20;;
22565;SDS011;11449;51.330;19.378;2023-03-21T11:35:05;16.00;;;9.70;;
22565;SDS011;11449;51.330;19.378;2023-03-21T11:45:34;17.20;;;11.30;;
22565;SDS011;11449;51.330;19.378;2023-03-21T11:50:46;20.40;;;12.20;;
22565;SDS011;11449;51.330;19.378;2023-03-21T12:01:25;16.40;;;12.30;;
22565;SDS011;11449;51.330;19.378;2023-03-21T12:06:39;17.20;;;11.80;;
22565;SDS011;11449;51.330;19.378;2023-03-21T12:11:51;21.20;;;13.20;;
22565;SDS011;11449;51.330;19.378;2023-03-21T12:22:24;18.90;;;11.50;;
22565;SDS011;11449;51.330;19.378;2023-03-21T12:48:51;26.30;;;17.70;;
22565;SDS011;11449;51.330;19.378;2023-03-21T12:54:06;22.60;;;14.60;;
22565;SDS011;11449;51.330;19.378;2023-03-21T13:09:40;20.30;;;14.20;;
22565;SDS011;11449;51.330;19.378;2023-03-21T13:15:00;20.80;;;14.80;;
22565;SDS011;11449;51.330;19.378;2023-03-21T13:25:46;20.50;;;14.30;;
22565;SDS011;11449;51.330;19.378;2023-03-21T13:36:54;17.70;;;12.80;;
22565;SDS011;11449;51.330;19.378;2023-03-21T13:42:03;21.40;;;15.70;;
22565;SDS011;11449;51.330;19.378;2023-03-21T13:58:23;16.10;;;10.70;;
22565;SDS011;11449;51.330;19.378;2023-03-21T14:03:42;17.10;;;11.60;;
22565;SDS011;11449;51.330;19.378;2023-03-21T14:08:51;15.80;;;10.60;;
22565;SDS011;11449;51.330;19.378;2023-03-21T14:14:00;11.80;;;8.50;;
22565;SDS011;11449;51.330;19.378;2023-03-21T14:19:09;13.80;;;8.70;;
22565;SDS011;11449;51.330;19.378;2023-03-21T14:24:19;14.30;;;9.40;;
22565;SDS011;11449;51.330;19.378;2023-03-21T14:29:31;16.20;;;10.70;;
22565;SDS011;11449;51.330;19.378;2023-03-21T14:34:40;16.00;;;9.50;;
22565;SDS011;11449;51.330;19.378;2023-03-21T14:39:55;19.80;;;14.20;;
22565;SDS011;11449;51.330;19.378;2023-03-21T14:50:33;19.70;;;11.50;;
22565;SDS011;11449;51.330;19.378;2023-03-21T14:55:43;20.20;;;12.30;;
22565;SDS011;11449;51.330;19.378;2023-03-21T15:00:51;17.90;;;11.80;;
22565;SDS011;11449;51.330;19.378;2023-03-21T15:05:59;14.80;;;9.70;;
22565;SDS011;11449;51.330;19.378;2023-03-21T15:11:04;12.20;;;9.20;;
22565;SDS011;11449;51.330;19.378;2023-03-21T15:16:12;16.90;;;10.50;;
22565;SDS011;11449;51.330;19.378;2023-03-21T15:21:24;19.30;;;11.10;;
22565;SDS011;11449;51.330;19.378;2023-03-21T15:26:34;20.20;;;12.70;;
22565;SDS011;11449;51.330;19.378;2023-03-21T15:31:38;18.30;;;11.10;;
22565;SDS011;11449;51.330;19.378;2023-03-21T15:36:43;22.70;;;13.50;;
22565;SDS011;11449;51.330;19.378;2023-03-21T15:41:55;22.30;;;14.00;;
22565;SDS011;11449;51.330;19.378;2023-03-21T15:47:03;22.00;;;13.20;;
22565;SDS011;11449;51.330;19.378;2023-03-21T15:52:17;21.20;;;13.40;;
22565;SDS011;11449;51.330;19.378;2023-03-21T15:57:27;21.10;;;13.10;;
22565;SDS011;11449;51.330;19.378;2023-03-21T16:02:36;20.10;;;12.90;;
22565;SDS011;11449;51.330;19.378;2023-03-21T16:07:47;23.80;;;15.10;;
22565;SDS011;11449;51.330;19.378;2023-03-21T16:12:55;35.00;;;21.20;;
22565;SDS011;11449;51.330;19.378;2023-03-21T16:18:03;50.30;;;29.40;;
22565;SDS011;11449;51.330;19.378;2023-03-21T16:23:12;39.30;;;25.30;;
22565;SDS011;11449;51.330;19.378;2023-03-21T16:28:20;41.30;;;26.40;;
22565;SDS011;11449;51.330;19.378;2023-03-21T16:33:28;38.10;;;24.10;;
22565;SDS011;11449;51.330;19.378;2023-03-21T16:38:35;26.30;;;18.40;;
22565;SDS011;11449;51.330;19.378;2023-03-21T16:43:44;36.30;;;22.50;;
22565;SDS011;11449;51.330;19.378;2023-03-21T16:48:53;36.70;;;24.40;;
22565;SDS011;11449;51.330;19.378;2023-03-21T16:53:56;38.30;;;24.10;;
22565;SDS011;11449;51.330;19.378;2023-03-21T16:59:04;63.20;;;33.90;;
22565;SDS011;11449;51.330;19.378;2023-03-21T17:04:13;58.80;;;32.40;;
22565;SDS011;11449;51.330;19.378;2023-03-21T17:09:22;51.30;;;29.40;;
22565;SDS011;11449;51.330;19.378;2023-03-21T17:14:41;79.80;;;37.90;;
22565;SDS011;11449;51.330;19.378;2023-03-21T17:19:49;50.90;;;26.20;;
22565;SDS011;11449;51.330;19.378;2023-03-21T17:24:57;52.30;;;27.90;;
22565;SDS011;11449;51.330;19.378;2023-03-21T17:30:00;52.80;;;32.20;;
22565;SDS011;11449;51.330;19.378;2023-03-21T17:35:08;59.10;;;32.50;;
22565;SDS011;11449;51.330;19.378;2023-03-21T17:40:22;41.20;;;18.60;;
22565;SDS011;11449;51.330;19.378;2023-03-21T17:45:30;32.70;;;17.10;;
22565;SDS011;11449;51.330;19.378;2023-03-21T17:50:38;30.70;;;19.20;;
22565;SDS011;11449;51.330;19.378;2023-03-21T17:56:09;41.90;;;21.80;;
22565;SDS011;11449;51.330;19.378;2023-03-21T18:01:14;43.30;;;21.10;;
22565;SDS011;11449;51.330;19.378;2023-03-21T18:06:23;35.40;;;20.70;;
22565;SDS011;11449;51.330;19.378;2023-03-21T18:11:31;48.90;;;27.60;;
22565;SDS011;11449;51.330;19.378;2023-03-21T18:16:39;61.40;;;34.70;;
22565;SDS011;11449;51.330;19.378;2023-03-21T18:21:47;62.20;;;35.40;;
22565;SDS011;11449;51.330;19.378;2023-03-21T18:26:49;59.30;;;32.10;;
22565;SDS011;11449;51.330;19.378;2023-03-21T18:31:58;59.30;;;29.60;;
22565;SDS011;11449;51.330;19.378;2023-03-21T18:37:02;52.70;;;29.90;;
22565;SDS011;11449;51.330;19.378;2023-03-21T18:42:11;44.10;;;25.50;;
22565;SDS011;11449;51.330;19.378;2023-03-21T18:47:19;62.90;;;36.30;;
22565;SDS011;11449;51.330;19.378;2023-03-21T18:52:30;175.90;;;71.10;;
22565;SDS011;11449;51.330;19.378;2023-03-21T18:57:38;166.10;;;46.20;;
22565;SDS011;11449;51.330;19.378;2023-03-21T19:02:47;154.70;;;42.80;;
22565;SDS011;11449;51.330;19.378;2023-03-21T19:07:56;181.80;;;47.50;;
22565;SDS011;11449;51.330;19.378;2023-03-21T19:13:03;136.90;;;41.40;;
22565;SDS011;11449;51.330;19.378;2023-03-21T19:18:13;158.10;;;43.00;;
22565;SDS011;11449;51.330;19.378;2023-03-21T19:23:21;161.10;;;41.50;;
22565;SDS011;11449;51.330;19.378;2023-03-21T19:28:28;162.80;;;42.60;;
22565;SDS011;11449;51.330;19.378;2023-03-21T19:33:32;155.10;;;46.90;;
22565;SDS011;11449;51.330;19.378;2023-03-21T19:38:39;168.40;;;50.60;;
22565;SDS011;11449;51.330;19.378;2023-03-21T19:43:47;169.40;;;44.70;;
22565;SDS011;11449;51.330;19.378;2023-03-21T19:48:58;176.60;;;51.30;;
22565;SDS011;11449;51.330;19.378;2023-03-21T19:54:05;174.50;;;46.30;;
22565;SDS011;11449;51.330;19.378;2023-03-21T19:59:14;127.70;;;42.10;;
22565;SDS011;11449;51.330;19.378;2023-03-21T20:04:17;87.70;;;30.50;;
22565;SDS011;11449;51.330;19.378;2023-03-21T20:09:25;87.20;;;28.20;;
22565;SDS011;11449;51.330;19.378;2023-03-21T20:14:33;123.80;;;46.10;;
22565;SDS011;11449;51.330;19.378;2023-03-21T20:19:36;104.60;;;39.30;;
22565;SDS011;11449;51.330;19.378;2023-03-21T20:24:41;107.00;;;39.40;;
22565;SDS011;11449;51.330;19.378;2023-03-21T20:29:51;143.70;;;42.20;;
22565;SDS011;11449;51.330;19.378;2023-03-21T20:34:54;200.70;;;53.00;;
22565;SDS011;11449;51.330;19.378;2023-03-21T20:39:57;153.00;;;43.60;;
22565;SDS011;11449;51.330;19.378;2023-03-21T20:45:05;174.70;;;46.40;;
22565;SDS011;11449;51.330;19.378;2023-03-21T20:50:13;185.20;;;48.40;;
22565;SDS011;11449;51.330;19.378;2023-03-21T20:55:21;220.40;;;55.20;;
22565;SDS011;11449;51.330;19.378;2023-03-21T21:00:28;207.40;;;58.90;;
22565;SDS011;11449;51.330;19.378;2023-03-21T21:05:31;128.30;;;60.30;;
22565;SDS011;11449;51.330;19.378;2023-03-21T21:10:36;148.60;;;71.60;;
22565;SDS011;11449;51.330;19.378;2023-03-21T21:15:39;104.10;;;50.90;;
22565;SDS011;11449;51.330;19.378;2023-03-21T21:20:42;130.70;;;65.30;;
22565;SDS011;11449;51.330;19.378;2023-03-21T21:25:50;165.00;;;78.80;;
22565;SDS011;11449;51.330;19.378;2023-03-21T21:36:10;142.10;;;67.60;;
22565;SDS011;11449;51.330;19.378;2023-03-21T21:41:19;212.00;;;99.30;;
22565;SDS011;11449;51.330;19.378;2023-03-21T21:46:28;243.60;;;111.80;;
22565;SDS011;11449;51.330;19.378;2023-03-21T21:51:35;253.80;;;113.50;;
22565;SDS011;11449;51.330;19.378;2023-03-21T21:56:43;225.20;;;105.60;;
22565;SDS011;11449;51.330;19.378;2023-03-21T22:01:54;235.60;;;114.20;;
22565;SDS011;11449;51.330;19.378;2023-03-21T22:06:58;265.00;;;119.30;;
22565;SDS011;11449;51.330;19.378;2023-03-21T22:12:00;243.00;;;109.50;;
22565;SDS011;11449;51.330;19.378;2023-03-21T22:17:03;322.60;;;135.70;;
22565;SDS011;11449;51.330;19.378;2023-03-21T22:22:11;272.30;;;122.60;;
22565;SDS011;11449;51.330;19.378;2023-03-21T22:27:19;275.40;;;123.20;;
22565;SDS011;11449;51.330;19.378;2023-03-21T22:32:27;283.70;;;126.00;;
22565;SDS011;11449;51.330;19.378;2023-03-21T22:37:35;289.40;;;129.20;;
22565;SDS011;11449;51.330;19.378;2023-03-21T22:42:39;266.70;;;125.30;;
22565;SDS011;11449;51.330;19.378;2023-03-21T22:47:47;257.20;;;120.90;;
22565;SDS011;11449;51.330;19.378;2023-03-21T22:52:54;258.40;;;120.60;;
22565;SDS011;11449;51.330;19.378;2023-03-21T22:58:02;274.60;;;122.20;;
22565;SDS011;11449;51.330;19.378;2023-03-21T23:03:10;253.80;;;115.40;;
22565;SDS011;11449;51.330;19.378;2023-03-21T23:08:21;260.30;;;116.70;;
22565;SDS011;11449;51.330;19.378;2023-03-21T23:13:30;265.00;;;124.20;;
22565;SDS011;11449;51.330;19.378;2023-03-21T23:18:38;267.90;;;119.70;;
22565;SDS011;11449;51.330;19.378;2023-03-21T23:23:45;264.40;;;117.60;;
22565;SDS011;11449;51.330;19.378;2023-03-21T23:34:04;233.80;;;103.80;;
22565;SDS011;11449;51.330;19.378;2023-03-21T23:39:12;215.40;;;103.70;;
22565;SDS011;11449;51.330;19.378;2023-03-21T23:44:20;241.40;;;113.40;;
22565;SDS011;11449;51.330;19.378;2023-03-21T23:49:28;274.10;;;124.80;;
22565;SDS011;11449;51.330;19.378;2023-03-21T23:54:35;218.30;;;103.80;;
22565;SDS011;11449;51.330;19.378;2023-03-21T23:59:43;218.10;;;103.60;;
